createdAt,value
2019-02-17T00:01:44.494Z,93.40
2019-02-17T00:04:15.471Z,93.40
2019-02-17T00:06:45.095Z,93.50
2019-02-17T00:09:15.078Z,93.60
2019-02-17T00:11:45.691Z,93.60
2019-02-17T00:14:15.217Z,93.70
2019-02-17T00:16:46.753Z,93.60
2019-02-17T00:19:16.556Z,93.70
2019-02-17T00:21:46.516Z,93.80
2019-02-17T00:24:19.463Z,93.60
2019-02-17T00:26:49.061Z,93.80
2019-02-17T00:29:20.613Z,93.80
2019-02-17T00:31:50.811Z,93.80
2019-02-17T00:34:23.418Z,93.80
2019-02-17T00:36:52.963Z,93.90
2019-02-17T00:39:25.506Z,93.90
2019-02-17T00:41:56.851Z,93.90
2019-02-17T00:44:26.465Z,94.00
2019-02-17T00:46:56.136Z,94.00
2019-02-17T00:49:28.068Z,94.00
2019-02-17T00:51:57.536Z,94.00
2019-02-17T00:54:29.131Z,94.00
2019-02-17T00:57:01.523Z,94.10
2019-02-17T00:59:34.170Z,94.10
2019-02-17T01:02:07.676Z,94.10
2019-02-17T01:04:37.386Z,94.10
2019-02-17T01:07:09.553Z,94.10
2019-02-17T01:09:44.706Z,94.10
2019-02-17T01:12:18.924Z,94.20
2019-02-17T01:14:50.047Z,94.20
2019-02-17T01:17:20.271Z,94.30
2019-02-17T01:19:50.591Z,94.30
2019-02-17T01:22:20.102Z,94.30
2019-02-17T01:24:49.741Z,94.40
2019-02-17T01:27:19.360Z,94.40
2019-02-17T01:29:49.291Z,94.50
2019-02-17T01:32:21.716Z,94.50
2019-02-17T01:34:51.854Z,94.60
2019-02-17T01:37:21.454Z,94.60
2019-02-17T01:39:54.820Z,94.60
2019-02-17T01:42:24.589Z,94.70
2019-02-17T01:44:55.579Z,94.70
2019-02-17T01:47:27.839Z,94.60
2019-02-17T01:50:02.763Z,94.80
2019-02-17T01:52:34.951Z,94.80
2019-02-17T01:55:04.467Z,94.80
2019-02-17T01:57:34.959Z,94.90
2019-02-17T02:00:06.713Z,94.90
2019-02-17T02:02:36.495Z,95.30
2019-02-17T02:05:06.889Z,95.00
2019-02-17T02:07:36.466Z,95.00
2019-02-17T02:10:07.001Z,95.20
2019-02-17T02:12:38.337Z,95.30
2019-02-17T02:15:08.743Z,95.30
2019-02-17T02:17:40.462Z,95.40
2019-02-17T02:20:12.151Z,95.40
2019-02-17T02:22:42.036Z,95.50
2019-02-17T02:25:14.723Z,95.60
2019-02-17T02:27:45.484Z,95.50
2019-02-17T02:30:15.401Z,95.60
2019-02-17T02:32:45.475Z,95.70
2019-02-17T02:35:14.942Z,95.70
2019-02-17T02:37:44.556Z,95.70
2019-02-17T02:40:14.343Z,95.70
2019-02-17T02:42:44.783Z,95.80
2019-02-17T02:45:14.960Z,95.80
2019-02-17T02:47:45.092Z,95.90
2019-02-17T02:50:14.815Z,96.00
2019-02-17T02:52:44.380Z,95.90
2019-02-17T02:55:14.325Z,96.00
2019-02-17T02:57:44.917Z,96.00
2019-02-17T03:00:14.892Z,96.10
2019-02-17T03:02:45.081Z,96.10
2019-02-17T03:05:14.671Z,96.10
2019-02-17T03:07:44.638Z,96.30
2019-02-17T03:10:14.300Z,96.30
2019-02-17T03:12:44.048Z,96.30
2019-02-17T03:15:13.897Z,96.30
2019-02-17T03:17:45.839Z,96.40
2019-02-17T03:20:15.884Z,96.50
2019-02-17T03:22:45.910Z,96.50
2019-02-17T03:25:15.249Z,96.60
2019-02-17T03:27:45.285Z,96.70
2019-02-17T03:30:14.702Z,96.80
2019-02-17T03:32:45.878Z,96.80
2019-02-17T03:35:16.120Z,96.90
2019-02-17T03:37:46.305Z,97.00
2019-02-17T03:40:15.669Z,97.10
2019-02-17T03:42:45.072Z,97.10
2019-02-17T03:45:14.579Z,97.30
2019-02-17T03:47:44.048Z,97.30
2019-02-17T03:50:13.493Z,97.40
2019-02-17T03:52:43.206Z,97.50
2019-02-17T03:55:12.831Z,97.50
2019-02-17T03:57:43.579Z,97.60
2019-02-17T04:00:17.052Z,97.60
2019-02-17T04:02:44.244Z,97.70
2019-02-17T04:05:17.197Z,97.70
2019-02-17T04:07:46.928Z,97.80
2019-02-17T04:10:16.596Z,97.80
2019-02-17T04:12:46.326Z,97.80
2019-02-17T04:15:15.830Z,97.90
2019-02-17T04:17:45.436Z,97.80
2019-02-17T04:20:15.770Z,98.00
2019-02-17T04:22:46.090Z,98.30
2019-02-17T04:25:16.177Z,98.00
2019-02-17T04:27:46.036Z,98.10
2019-02-17T04:30:15.657Z,98.20
2019-02-17T04:32:45.488Z,98.30
2019-02-17T04:35:15.073Z,98.20
2019-02-17T04:37:44.488Z,98.30
2019-02-17T04:40:14.581Z,98.40
2019-02-17T04:42:44.236Z,98.40
2019-02-17T04:45:14.905Z,98.50
2019-02-17T04:47:44.451Z,98.60
2019-02-17T04:50:13.915Z,98.60
2019-02-17T04:52:43.288Z,98.70
2019-02-17T04:55:12.841Z,98.70
2019-02-17T04:57:42.262Z,98.70
2019-02-17T05:00:11.735Z,98.70
2019-02-17T05:02:40.935Z,98.80
2019-02-17T05:05:10.483Z,98.90
2019-02-17T05:07:40.677Z,99.00
2019-02-17T05:10:10.257Z,99.00
2019-02-17T05:12:39.931Z,99.10
2019-02-17T05:15:09.495Z,99.10
2019-02-17T05:17:39.091Z,99.10
2019-02-17T05:20:09.326Z,99.10
2019-02-17T05:22:39.564Z,99.10
2019-02-17T05:25:09.276Z,99.20
2019-02-17T05:27:38.645Z,99.20
2019-02-17T05:30:09.537Z,99.40
2019-02-17T05:32:39.127Z,99.40
2019-02-17T05:35:08.627Z,99.40
2019-02-17T05:37:38.135Z,99.40
2019-02-17T05:40:07.726Z,99.40
2019-02-17T05:42:37.471Z,99.50
2019-02-17T05:45:07.533Z,99.50
2019-02-17T05:47:37.058Z,99.50
2019-02-17T05:50:06.529Z,99.50
2019-02-17T05:52:36.145Z,99.50
2019-02-17T05:55:05.924Z,99.50
2019-02-17T05:57:35.967Z,99.50
2019-02-17T06:00:06.242Z,99.50
2019-02-17T06:02:36.006Z,99.60
2019-02-17T06:05:05.596Z,99.60
2019-02-17T06:07:35.839Z,99.60
2019-02-17T06:10:05.725Z,99.60
2019-02-17T06:12:35.229Z,99.60
2019-02-17T06:15:05.430Z,99.60
2019-02-17T06:17:35.027Z,99.60
2019-02-17T06:20:04.852Z,99.50
2019-02-17T06:22:34.511Z,99.90
2019-02-17T06:25:03.818Z,99.50
2019-02-17T06:27:33.230Z,99.60
2019-02-17T06:30:03.294Z,99.60
2019-02-17T06:32:32.952Z,99.60
2019-02-17T06:35:03.204Z,99.60
2019-02-17T06:37:32.763Z,99.60
2019-02-17T06:40:02.182Z,99.60
2019-02-17T06:42:31.816Z,99.60
2019-02-17T06:45:01.546Z,99.60
2019-02-17T06:47:35.093Z,99.70
2019-02-17T06:50:04.705Z,99.60
2019-02-17T06:52:35.271Z,99.70
2019-02-17T06:55:18.976Z,99.70
2019-02-17T06:57:49.066Z,99.60
2019-02-17T07:00:28.640Z,99.70
2019-02-17T07:02:58.736Z,99.60
2019-02-17T07:05:33.688Z,99.60
2019-02-17T07:08:03.436Z,99.50
2019-02-17T07:10:33.694Z,99.50
2019-02-17T07:13:03.615Z,99.40
2019-02-17T07:15:32.923Z,99.40
2019-02-17T07:18:02.680Z,99.30
2019-02-17T07:20:31.964Z,99.10
2019-02-17T07:23:01.627Z,99.00
2019-02-17T07:25:31.931Z,98.80
2019-02-17T07:28:01.391Z,98.50
2019-02-17T07:30:30.825Z,98.30
2019-02-17T07:33:00.193Z,98.20
2019-02-17T07:35:29.767Z,98.10
2019-02-17T07:37:58.792Z,98.10
2019-02-17T07:40:28.215Z,98.00
2019-02-17T07:42:57.699Z,97.80
2019-02-17T07:45:26.960Z,97.50
2019-02-17T07:47:56.611Z,97.30
2019-02-17T07:50:26.206Z,97.20
2019-02-17T07:52:55.614Z,97.00
2019-02-17T07:55:25.827Z,96.80
2019-02-17T07:57:55.181Z,96.50
2019-02-17T08:00:24.985Z,96.40
2019-02-17T08:02:54.323Z,96.30
2019-02-17T08:05:24.192Z,96.20
2019-02-17T08:07:53.562Z,95.90
2019-02-17T08:10:23.423Z,95.90
2019-02-17T08:12:53.018Z,95.80
2019-02-17T08:15:22.466Z,95.70
2019-02-17T08:17:51.933Z,95.60
2019-02-17T08:20:22.196Z,95.50
2019-02-17T08:22:52.065Z,95.30
2019-02-17T08:25:22.308Z,95.20
2019-02-17T08:27:51.905Z,95.10
2019-02-17T08:30:22.883Z,94.80
2019-02-17T08:32:52.623Z,94.70
2019-02-17T08:35:22.062Z,94.80
2019-02-17T08:37:51.627Z,94.60
2019-02-17T08:40:21.550Z,94.60
2019-02-17T08:42:51.071Z,94.40
2019-02-17T08:45:20.632Z,94.50
2019-02-17T08:47:50.174Z,94.40
2019-02-17T08:50:20.284Z,94.20
2019-02-17T08:52:50.105Z,93.90
2019-02-17T08:55:19.744Z,93.70
2019-02-17T08:57:50.584Z,93.50
2019-02-17T09:00:20.068Z,93.40
2019-02-17T09:02:49.798Z,93.20
2019-02-17T09:05:20.269Z,92.90
2019-02-17T09:07:50.284Z,93.00
2019-02-17T09:10:19.717Z,93.00
2019-02-17T09:12:49.877Z,92.90
2019-02-17T09:15:19.366Z,92.70
2019-02-17T09:17:49.675Z,92.50
2019-02-17T09:20:19.197Z,92.00
2019-02-17T09:22:48.958Z,91.90
2019-02-17T09:25:18.839Z,91.80
2019-02-17T09:27:48.998Z,91.40
2019-02-17T09:30:18.709Z,91.30
2019-02-17T09:32:48.607Z,91.30
2019-02-17T09:35:18.054Z,91.10
2019-02-17T09:37:48.076Z,90.90
2019-02-17T09:40:17.935Z,90.90
2019-02-17T09:42:47.568Z,90.80
2019-02-17T09:45:17.079Z,90.70
2019-02-17T09:47:46.785Z,90.40
2019-02-17T09:50:16.922Z,90.30
2019-02-17T09:53:10.863Z,90.00
2019-02-17T09:55:50.185Z,89.40
2019-02-17T10:01:10.326Z,89.20
2019-02-17T10:03:40.760Z,88.70
2019-02-17T10:06:10.494Z,87.90
2019-02-17T10:08:40.022Z,87.40
2019-02-17T10:11:09.792Z,86.10
2019-02-17T10:13:39.221Z,86.70
2019-02-17T10:16:08.762Z,86.10
2019-02-17T10:18:38.121Z,85.60
2019-02-17T10:21:07.973Z,85.60
2019-02-17T10:23:37.883Z,84.80
2019-02-17T10:26:07.061Z,84.70
2019-02-17T10:28:42.331Z,84.40
2019-02-17T10:31:07.674Z,83.70
2019-02-17T10:33:37.018Z,83.10
2019-02-17T10:36:06.218Z,82.90
2019-02-17T10:38:35.389Z,82.40
2019-02-17T10:41:04.878Z,82.10
2019-02-17T10:43:34.582Z,81.80
2019-02-17T10:46:06.050Z,81.80
2019-02-17T10:48:34.789Z,81.50
2019-02-17T10:51:04.430Z,81.10
2019-02-17T10:53:34.176Z,80.70
2019-02-17T10:56:03.596Z,80.20
2019-02-17T10:58:32.822Z,80.60
2019-02-17T11:01:02.209Z,79.90
2019-02-17T11:03:32.065Z,79.00
2019-02-17T11:06:01.366Z,78.40
2019-02-17T11:08:31.248Z,77.50
2019-02-17T11:11:00.636Z,77.00
2019-02-17T11:13:30.465Z,76.40
2019-02-17T11:15:59.840Z,76.00
2019-02-17T11:18:30.207Z,75.40
2019-02-17T11:21:05.614Z,74.10
2019-02-17T11:23:36.494Z,73.00
2019-02-17T11:26:05.846Z,72.70
2019-02-17T11:28:35.571Z,71.50
2019-02-17T11:31:16.199Z,71.40
2019-02-17T11:33:48.340Z,70.80
2019-02-17T11:36:17.675Z,70.20
2019-02-17T11:38:47.287Z,69.60
2019-02-17T11:41:17.128Z,69.30
2019-02-17T11:43:46.630Z,69.60
2019-02-17T11:46:16.772Z,68.30
2019-02-17T11:48:45.987Z,68.00
2019-02-17T11:51:15.268Z,67.60
2019-02-17T11:53:44.934Z,67.70
2019-02-17T11:56:14.452Z,67.10
2019-02-17T11:58:44.697Z,66.50
2019-02-17T12:01:17.311Z,65.70
2019-02-17T12:03:46.989Z,65.60
2019-02-17T12:06:16.332Z,65.30
2019-02-17T12:08:49.284Z,65.60
2019-02-17T12:11:18.621Z,64.70
2019-02-17T12:13:48.220Z,63.30
2019-02-17T12:16:17.525Z,61.80
2019-02-17T12:18:46.996Z,60.80
2019-02-17T12:21:53.303Z,61.20
2019-02-17T12:24:41.446Z,60.50
2019-02-17T12:27:15.334Z,60.60
2019-02-17T12:29:50.140Z,60.30
2019-02-17T12:32:21.476Z,60.50
2019-02-17T12:34:50.920Z,59.90
2019-02-17T12:37:20.346Z,59.90
2019-02-17T12:39:49.777Z,59.70
2019-02-17T12:42:18.866Z,59.10
2019-02-17T12:44:48.335Z,58.50
2019-02-17T12:47:17.550Z,58.20
2019-02-17T12:49:47.125Z,58.00
2019-02-17T12:52:16.276Z,57.70
2019-02-17T12:54:46.039Z,57.90
2019-02-17T12:57:15.295Z,57.50
2019-02-17T12:59:45.086Z,57.20
2019-02-17T13:02:14.218Z,56.50
2019-02-17T13:04:43.470Z,56.40
2019-02-17T13:07:12.690Z,55.90
2019-02-17T13:09:41.805Z,55.80
2019-02-17T13:12:11.390Z,55.40
2019-02-17T13:14:40.473Z,55.20
2019-02-17T13:17:09.894Z,55.10
2019-02-17T13:19:41.247Z,54.60
2019-02-17T13:22:10.027Z,54.60
2019-02-17T13:24:39.217Z,54.30
2019-02-17T13:27:08.818Z,54.30
2019-02-17T13:29:40.266Z,54.50
2019-02-17T13:32:09.763Z,54.90
2019-02-17T13:34:39.161Z,54.00
2019-02-17T13:37:08.636Z,54.40
2019-02-17T13:39:38.464Z,53.60
2019-02-17T13:42:07.832Z,53.10
2019-02-17T13:44:37.228Z,53.20
2019-02-17T13:47:06.672Z,53.80
2019-02-17T13:49:35.996Z,52.70
2019-02-17T13:52:05.667Z,52.70
2019-02-17T13:54:35.437Z,52.60
2019-02-17T13:57:04.670Z,52.90
2019-02-17T13:59:33.964Z,52.60
2019-02-17T14:02:03.326Z,51.70
2019-02-17T14:04:35.623Z,51.20
2019-02-17T14:07:05.424Z,51.20
2019-02-17T14:09:34.622Z,51.00
2019-02-17T14:12:04.452Z,50.60
2019-02-17T14:14:34.146Z,50.30
2019-02-17T14:17:03.369Z,50.50
2019-02-17T14:19:33.430Z,50.60
2019-02-17T14:22:02.819Z,49.80
2019-02-17T14:24:33.362Z,49.50
2019-02-17T14:27:04.103Z,49.40
2019-02-17T14:29:34.101Z,49.20
2019-02-17T14:32:04.254Z,49.40
2019-02-17T14:34:33.987Z,49.70
2019-02-17T14:37:03.287Z,49.90
2019-02-17T14:39:33.068Z,49.90
2019-02-17T14:42:02.614Z,50.20
2019-02-17T14:44:31.850Z,50.40
2019-02-17T14:47:02.072Z,50.70
2019-02-17T14:49:31.617Z,51.30
2019-02-17T14:52:00.878Z,51.40
2019-02-17T14:54:30.453Z,51.60
2019-02-17T14:57:00.059Z,51.90
2019-02-17T14:59:29.989Z,52.00
2019-02-17T15:01:59.606Z,52.30
2019-02-17T15:04:29.165Z,52.40
2019-02-17T15:06:58.459Z,52.40
2019-02-17T15:09:28.019Z,52.50
2019-02-17T15:11:57.505Z,53.00
2019-02-17T15:14:26.743Z,52.70
2019-02-17T15:16:56.295Z,52.50
2019-02-17T15:19:26.251Z,52.70
2019-02-17T15:21:55.641Z,52.90
2019-02-17T15:24:24.878Z,53.20
2019-02-17T15:26:54.321Z,53.50
2019-02-17T15:29:24.226Z,53.80
2019-02-17T15:31:53.417Z,54.30
2019-02-17T15:34:23.024Z,54.40
2019-02-17T15:36:52.439Z,55.00
2019-02-17T15:39:21.769Z,54.90
2019-02-17T15:41:51.351Z,55.10
2019-02-17T15:44:21.334Z,55.20
2019-02-17T15:46:51.172Z,55.10
2019-02-17T15:49:20.384Z,55.30
2019-02-17T15:51:50.025Z,55.60
2019-02-17T15:54:19.204Z,55.70
2019-02-17T15:56:48.448Z,55.50
2019-02-17T15:59:17.845Z,55.70
2019-02-17T16:01:47.513Z,56.00
2019-02-17T16:04:16.878Z,56.50
2019-02-17T16:06:46.161Z,56.30
2019-02-17T16:09:15.790Z,56.50
2019-02-17T16:11:45.121Z,56.60
2019-02-17T16:14:16.183Z,56.70
2019-02-17T16:16:45.892Z,56.90
2019-02-17T16:19:17.828Z,56.90
2019-02-17T16:21:47.511Z,57.00
2019-02-17T16:24:17.176Z,57.10
2019-02-17T16:26:46.933Z,57.60
2019-02-17T16:29:16.109Z,57.10
2019-02-17T16:31:45.353Z,57.30
2019-02-17T16:34:15.064Z,57.50
2019-02-17T16:36:44.868Z,57.40
2019-02-17T16:39:14.037Z,57.60
2019-02-17T16:41:43.498Z,57.80
2019-02-17T16:44:12.950Z,57.80
2019-02-17T16:46:42.721Z,58.10
2019-02-17T16:49:12.787Z,58.10
2019-02-17T16:51:42.266Z,58.40
2019-02-17T16:54:12.044Z,58.30
2019-02-17T16:56:41.480Z,58.20
2019-02-17T16:59:10.603Z,58.60
2019-02-17T17:01:39.967Z,58.80
2019-02-17T17:04:10.107Z,58.80
2019-02-17T17:06:39.339Z,59.10
2019-02-17T17:09:08.803Z,59.10
2019-02-17T17:11:38.481Z,59.10
2019-02-17T17:14:09.068Z,59.20
2019-02-17T17:16:38.430Z,59.50
2019-02-17T17:19:08.402Z,59.50
2019-02-17T17:21:37.837Z,59.60
2019-02-17T17:24:06.956Z,59.80
2019-02-17T17:26:36.907Z,59.90
2019-02-17T17:29:06.309Z,60.60
2019-02-17T17:31:36.198Z,60.50
2019-02-17T17:34:05.336Z,60.40
2019-02-17T17:36:34.824Z,60.50
2019-02-17T17:39:04.247Z,60.80
2019-02-17T17:41:33.493Z,60.80
2019-02-17T17:44:03.231Z,61.10
2019-02-17T17:46:32.518Z,61.30
2019-02-17T17:49:01.781Z,61.60
2019-02-17T17:51:31.035Z,62.00
2019-02-17T17:54:00.640Z,62.10
2019-02-17T17:56:29.779Z,62.00
2019-02-17T17:58:59.172Z,62.20
2019-02-17T18:01:29.113Z,62.40
2019-02-17T18:03:58.488Z,62.20
2019-02-17T18:06:28.327Z,61.90
2019-02-17T18:08:57.822Z,62.00
2019-02-17T18:11:27.538Z,61.90
2019-02-17T18:13:57.758Z,62.00
2019-02-17T18:16:27.212Z,62.00
2019-02-17T18:18:56.987Z,61.90
2019-02-17T18:21:26.694Z,61.70
2019-02-17T18:23:56.044Z,61.50
2019-02-17T18:26:28.885Z,61.40
2019-02-17T18:28:58.523Z,60.90
2019-02-17T18:31:28.090Z,60.50
2019-02-17T18:33:58.050Z,60.00
2019-02-17T18:36:27.981Z,59.50
2019-02-17T18:38:58.485Z,59.30
2019-02-17T18:41:28.819Z,58.90
2019-02-17T18:43:59.225Z,58.60
2019-02-17T18:46:28.706Z,58.50
2019-02-17T18:48:58.009Z,58.50
2019-02-17T18:51:27.163Z,58.30
2019-02-17T18:53:56.490Z,58.30
2019-02-17T18:56:26.087Z,58.20
2019-02-17T18:58:56.007Z,58.20
2019-02-17T19:01:26.712Z,58.00
2019-02-17T19:03:56.222Z,57.90
2019-02-17T19:06:26.707Z,58.00
2019-02-17T19:08:56.592Z,58.00
2019-02-17T19:11:28.952Z,58.00
2019-02-17T19:14:00.368Z,58.10
2019-02-17T19:16:32.648Z,58.10
2019-02-17T19:19:05.264Z,57.90
2019-02-17T19:21:35.586Z,57.80
2019-02-17T19:24:10.793Z,57.90
2019-02-17T19:26:40.611Z,57.90
2019-02-17T19:29:10.298Z,58.10
2019-02-17T19:31:39.985Z,58.20
2019-02-17T19:34:09.547Z,58.30
2019-02-17T19:36:39.491Z,58.30
2019-02-17T19:39:12.171Z,58.30
2019-02-17T19:41:42.151Z,58.30
2019-02-17T19:44:11.902Z,58.30
2019-02-17T19:46:41.756Z,58.40
2019-02-17T19:49:11.733Z,58.60
2019-02-17T19:51:41.401Z,58.60
2019-02-17T19:54:11.227Z,58.70
2019-02-17T19:56:41.557Z,58.80
2019-02-17T19:59:11.247Z,58.90
2019-02-17T20:01:40.718Z,58.90
2019-02-17T20:04:27.249Z,59.00
2019-02-17T20:06:56.812Z,59.00
2019-02-17T20:09:26.429Z,58.80
2019-02-17T20:11:55.786Z,58.80
2019-02-17T20:14:25.687Z,58.70
2019-02-17T20:16:55.270Z,58.80
2019-02-17T20:19:25.687Z,58.90
2019-02-17T20:21:57.966Z,59.20
2019-02-17T20:24:27.936Z,59.40
2019-02-17T20:26:58.977Z,59.80
2019-02-17T20:29:28.812Z,60.10
2019-02-17T20:31:59.347Z,60.60
2019-02-17T20:34:31.908Z,60.90
2019-02-17T20:37:05.087Z,61.40
2019-02-17T20:39:36.626Z,61.50
2019-02-17T20:42:09.408Z,61.80
2019-02-17T20:44:39.151Z,62.10
2019-02-17T20:47:09.177Z,62.30
2019-02-17T20:49:39.616Z,62.70
2019-02-17T20:52:10.627Z,62.90
2019-02-17T20:54:46.788Z,62.90
2019-02-17T20:57:23.932Z,63.00
2019-02-17T20:59:53.385Z,63.00
2019-02-17T21:02:23.107Z,63.20
2019-02-17T21:04:53.285Z,63.30
2019-02-17T21:07:25.963Z,63.50
2019-02-17T21:09:56.650Z,63.60
2019-02-17T21:12:26.607Z,63.60
2019-02-17T21:14:56.619Z,63.80
2019-02-17T21:17:26.328Z,64.00
2019-02-17T21:19:56.171Z,64.20
2019-02-17T21:22:26.910Z,64.60
2019-02-17T21:24:57.384Z,64.80
2019-02-17T21:27:27.262Z,65.00
2019-02-17T21:29:57.431Z,65.10
2019-02-17T21:32:27.885Z,65.20
2019-02-17T21:34:57.936Z,65.50
2019-02-17T21:37:28.262Z,65.80
2019-02-17T21:39:57.707Z,66.00
2019-02-17T21:42:27.520Z,66.00
2019-02-17T21:44:57.628Z,66.30
2019-02-17T21:47:29.471Z,66.30
2019-02-17T21:49:59.029Z,66.50
2019-02-17T21:52:28.653Z,66.50
2019-02-17T21:54:58.464Z,66.80
2019-02-17T21:57:27.825Z,67.10
2019-02-17T21:59:57.678Z,67.40
2019-02-17T22:02:27.199Z,67.50
2019-02-17T22:04:57.221Z,67.80
2019-02-17T22:07:30.225Z,67.90
2019-02-17T22:10:00.790Z,68.00
2019-02-17T22:12:31.380Z,68.10
2019-02-17T22:15:01.112Z,68.50
2019-02-17T22:17:30.638Z,68.70
2019-02-17T22:20:02.981Z,68.90
2019-02-17T22:22:32.875Z,69.30
2019-02-17T22:25:02.248Z,69.40
2019-02-17T22:27:32.296Z,69.80
2019-02-17T22:30:01.536Z,70.20
2019-02-17T22:32:31.122Z,70.50
2019-02-17T22:35:00.812Z,70.80
2019-02-17T22:37:30.093Z,70.90
2019-02-17T22:39:59.589Z,71.40
2019-02-17T22:42:32.367Z,71.50
2019-02-17T22:45:02.235Z,71.80
2019-02-17T22:47:32.107Z,72.50
2019-02-17T22:50:02.072Z,72.50
2019-02-17T22:52:31.654Z,72.90
2019-02-17T22:55:01.828Z,73.10
2019-02-17T22:57:31.305Z,73.50
2019-02-17T23:00:00.903Z,73.90
2019-02-17T23:02:34.284Z,74.10
2019-02-17T23:05:04.770Z,74.40
2019-02-17T23:07:35.261Z,74.80
2019-02-17T23:10:06.997Z,75.10
2019-02-17T23:12:36.527Z,75.20
2019-02-17T23:15:06.157Z,75.70
2019-02-17T23:17:35.864Z,76.20
2019-02-17T23:20:05.522Z,76.50
2019-02-17T23:22:35.660Z,76.80
2019-02-17T23:25:06.220Z,77.10
2019-02-17T23:27:35.380Z,77.40
2019-02-17T23:30:05.342Z,77.70
2019-02-17T23:32:35.007Z,78.00
2019-02-17T23:35:04.558Z,78.70
2019-02-17T23:37:34.397Z,78.90
2019-02-17T23:40:06.284Z,79.30
2019-02-17T23:42:35.786Z,79.50
2019-02-17T23:45:05.462Z,79.70
2019-02-17T23:47:35.524Z,80.30
2019-02-17T23:50:05.217Z,80.60
2019-02-17T23:52:34.389Z,80.90
2019-02-17T23:55:03.894Z,81.20
2019-02-17T23:57:33.173Z,81.50
